createdAt,value
2023-01-12T00:03:33.087Z,65538.16
2023-01-12T00:08:37.327Z,65594.91
2023-01-12T00:13:42.851Z,65614.03
2023-01-12T00:18:47.215Z,65662.16
2023-01-12T00:23:51.277Z,65668.00
2023-01-12T00:28:56.815Z,65639.72
2023-01-12T00:34:00.883Z,65651.47
2023-01-12T00:39:05.388Z,65547.88
2023-01-12T00:44:28.187Z,65494.38
2023-01-12T00:49:32.349Z,65647.19
2023-01-12T00:54:36.501Z,65710.53
2023-01-12T00:59:42.140Z,65789.25
2023-01-12T01:04:46.244Z,65831.91
2023-01-12T01:09:50.762Z,65860.34
2023-01-12T01:14:56.502Z,65826.03
2023-01-12T01:20:01.326Z,65855.50
2023-01-12T01:25:06.107Z,65932.00
2023-01-12T01:30:12.995Z,65975.66
2023-01-12T01:35:17.203Z,65905.78
2023-01-12T01:40:21.364Z,65780.59
2023-01-12T01:45:28.118Z,65835.19
2023-01-12T01:50:36.346Z,65849.09
2023-01-12T01:55:48.320Z,65892.41
2023-01-12T02:00:54.253Z,65842.34
2023-01-12T02:05:59.024Z,65912.09
2023-01-12T02:11:04.483Z,65935.09
2023-01-12T02:16:21.948Z,65867.81
2023-01-12T02:21:52.117Z,65728.88
2023-01-12T02:27:30.031Z,65678.91
2023-01-12T02:32:45.148Z,65789.56
2023-01-12T02:38:00.226Z,65785.53
2023-01-12T02:43:09.781Z,65770.97
2023-01-12T02:48:22.135Z,65763.50
2023-01-12T02:53:31.562Z,65709.03
2023-01-12T02:58:40.046Z,65734.22
2023-01-12T03:03:46.792Z,65728.88
2023-01-12T03:08:53.289Z,65802.59
2023-01-12T03:14:01.273Z,65764.91
2023-01-12T03:19:10.270Z,65812.75
2023-01-12T03:24:17.082Z,65897.13
2023-01-12T03:29:27.448Z,65883.31
2023-01-12T03:34:34.559Z,65893.94
2023-01-12T03:39:49.418Z,65915.75
2023-01-12T03:45:07.484Z,65929.03
2023-01-12T03:50:16.948Z,65926.28
2023-01-12T03:55:24.161Z,65817.03
2023-01-12T04:00:30.514Z,65838.75
2023-01-12T04:05:36.090Z,65934.56
2023-01-12T04:10:40.408Z,65935.81
2023-01-12T04:15:44.712Z,65860.88
2023-01-12T04:20:50.223Z,65914.88
2023-01-12T04:25:54.321Z,65902.56
2023-01-12T04:30:58.407Z,65846.94
2023-01-12T04:36:03.873Z,65801.53
2023-01-12T04:41:08.931Z,65890.28
2023-01-12T04:46:13.124Z,65937.31
2023-01-12T04:51:18.879Z,65919.59
2023-01-12T04:56:23.023Z,65854.28
2023-01-12T05:01:28.237Z,65899.38
2023-01-12T05:06:33.810Z,65819.19
2023-01-12T05:11:38.102Z,65830.41
2023-01-12T05:16:42.293Z,65774.16
2023-01-12T05:21:47.827Z,65749.41
2023-01-12T05:26:51.899Z,65792.97
2023-01-12T05:31:56.120Z,65836.81
2023-01-12T05:37:01.697Z,65874.66
2023-01-12T05:42:25.573Z,65869.41
2023-01-12T05:47:29.759Z,65908.88
2023-01-12T05:52:35.451Z,65853.81
2023-01-12T05:57:39.706Z,65846.78
2023-01-12T06:02:43.958Z,65902.75
2023-01-12T06:07:49.728Z,65942.25
2023-01-12T06:13:11.453Z,65939.47
2023-01-12T06:18:17.438Z,65913.19
2023-01-12T06:23:23.132Z,65928.16
2023-01-12T06:28:42.964Z,65935.72
2023-01-12T06:33:50.464Z,65890.63
2023-01-12T06:39:00.005Z,65850.19
2023-01-12T06:44:08.309Z,65832.97
2023-01-12T06:49:17.133Z,65826.13
2023-01-12T06:54:26.070Z,65696.75
2023-01-12T06:59:33.784Z,65702.06
2023-01-12T07:04:41.397Z,65689.34
2023-01-12T07:09:50.375Z,65761.44
2023-01-12T07:14:58.965Z,65706.25
2023-01-12T07:20:03.372Z,65685.53
2023-01-12T07:25:10.614Z,65727.72
2023-01-12T07:30:15.412Z,65732.94
2023-01-12T07:35:19.930Z,65698.25
2023-01-12T07:40:25.671Z,65709.03
2023-01-12T07:45:30.569Z,65747.03
2023-01-12T07:50:36.943Z,65796.19
2023-01-12T07:55:43.843Z,65760.91
2023-01-12T08:00:48.060Z,65766.78
2023-01-12T08:05:52.381Z,65786.06
2023-01-12T08:11:02.576Z,65924.94
2023-01-12T08:16:14.868Z,65942.25
2023-01-12T08:21:22.068Z,65917.44
2023-01-12T08:26:31.964Z,65906.84
2023-01-12T08:31:39.806Z,65978.00
2023-01-12T08:36:44.739Z,65863.97
2023-01-12T08:41:50.478Z,65920.13
2023-01-12T08:46:55.471Z,65868.88
2023-01-12T08:51:59.801Z,65916.47
2023-01-12T08:57:05.727Z,65882.78
2023-01-12T09:02:11.942Z,65887.59
2023-01-12T09:07:17.269Z,65888.75
2023-01-12T09:12:24.533Z,65867.81
2023-01-12T09:17:28.931Z,65897.66
2023-01-12T09:22:33.305Z,65891.69
2023-01-12T09:27:38.919Z,65838.31
2023-01-12T09:32:43.218Z,65875.94
2023-01-12T09:37:47.493Z,65858.91
2023-01-12T09:43:11.248Z,65982.72
2023-01-12T09:48:18.697Z,65991.91
2023-01-12T09:53:27.881Z,65896.69
2023-01-12T09:58:44.407Z,65881.72
2023-01-12T10:03:49.508Z,65918.06
2023-01-12T10:08:57.118Z,66011.59
2023-01-12T10:14:34.512Z,65946.34
2023-01-12T10:19:47.894Z,65986.34
2023-01-12T10:24:54.380Z,66022.94
2023-01-12T10:30:01.046Z,66062.50
2023-01-12T10:35:05.811Z,66101.13
2023-01-12T10:40:25.899Z,66130.69
2023-01-12T10:45:31.447Z,66102.75
2023-01-12T10:50:37.396Z,66096.41
2023-01-12T10:55:44.101Z,66137.56
2023-01-12T11:00:52.231Z,66051.88
2023-01-12T11:05:56.635Z,66110.25
2023-01-12T11:11:16.356Z,66027.56
2023-01-12T11:16:25.212Z,65935.63
2023-01-12T11:21:34.058Z,66051.44
2023-01-12T11:26:45.257Z,66130.59
2023-01-12T11:31:55.179Z,66164.44
2023-01-12T11:37:07.918Z,66228.03
2023-01-12T11:42:37.331Z,66139.72
2023-01-12T11:47:48.495Z,66212.13
2023-01-12T11:52:53.679Z,66240.03
2023-01-12T11:58:07.753Z,66254.41
2023-01-12T12:03:38.910Z,66171.84
2023-01-12T12:08:53.145Z,66289.44
2023-01-12T12:14:05.673Z,66316.03
2023-01-12T12:19:30.176Z,66350.97
2023-01-12T12:24:52.571Z,66199.19
2023-01-12T12:30:18.340Z,66162.03
2023-01-12T12:35:43.616Z,66140.25
2023-01-12T12:41:20.436Z,66123.63
2023-01-12T12:46:35.425Z,66056.69
2023-01-12T12:51:43.074Z,66110.59
2023-01-12T12:56:49.987Z,66004.84
2023-01-12T13:02:00.001Z,66041.59
2023-01-12T13:07:08.329Z,66139.25
2023-01-12T13:12:21.985Z,66254.41
2023-01-12T13:17:44.772Z,66313.31
2023-01-12T13:22:51.828Z,66260.75
2023-01-12T13:28:19.302Z,66188.56
2023-01-12T13:33:26.095Z,66123.00
2023-01-12T13:38:57.092Z,66093.00
2023-01-12T13:44:02.092Z,66070.53
2023-01-12T13:49:26.218Z,66162.22
2023-01-12T13:54:33.627Z,66179.78
2023-01-12T13:59:37.986Z,66151.84
2023-01-12T14:05:05.636Z,66074.25
2023-01-12T14:10:26.593Z,66093.63
2023-01-12T14:15:54.173Z,66165.50
2023-01-12T14:21:00.048Z,66168.63
2023-01-12T14:26:06.845Z,66088.19
2023-01-12T14:31:20.624Z,66095.78
2023-01-12T14:36:27.948Z,66110.78
2023-01-12T14:41:51.267Z,66004.75
2023-01-12T14:46:55.619Z,65959.78
2023-01-12T14:52:02.600Z,65987.63
2023-01-12T14:57:10.513Z,65954.91
2023-01-12T15:02:32.842Z,65920.22
2023-01-12T15:07:39.656Z,65989.75
2023-01-12T15:12:48.766Z,65958.72
2023-01-12T15:18:11.967Z,65916.38
2023-01-12T15:23:34.097Z,65990.94
2023-01-12T15:28:40.451Z,66014.28
2023-01-12T15:33:44.744Z,65980.13
2023-01-12T15:38:49.015Z,65943.13
2023-01-12T15:43:54.551Z,65929.94
2023-01-12T15:48:58.929Z,65954.44
2023-01-12T15:54:04.133Z,65973.72
2023-01-12T15:59:09.732Z,65951.25
2023-01-12T16:04:41.535Z,65948.91
2023-01-12T16:09:41.700Z,65944.28
2023-01-12T16:14:47.626Z,65971.03
2023-01-12T16:19:51.833Z,65938.41
2023-01-12T16:24:57.572Z,65929.84
2023-01-12T16:30:03.457Z,65828.59
2023-01-12T16:35:08.139Z,65911.66
2023-01-12T16:40:13.676Z,65881.28
2023-01-12T16:45:19.439Z,65844.28
2023-01-12T16:50:23.723Z,65863.53
2023-01-12T16:55:28.037Z,65829.78
2023-01-12T17:00:36.341Z,65719.06
2023-01-12T17:05:42.364Z,65820.78
2023-01-12T17:10:46.855Z,65839.41
2023-01-12T17:15:52.547Z,65815.97
2023-01-12T17:21:03.549Z,65796.09
2023-01-12T17:26:09.529Z,65779.63
2023-01-12T17:31:18.354Z,65781.66
2023-01-12T17:36:22.615Z,65783.25
2023-01-12T17:41:44.072Z,65779.63
2023-01-12T17:46:50.022Z,65765.09
2023-01-12T17:51:53.883Z,65746.41
2023-01-12T17:56:58.215Z,65761.97
2023-01-12T18:02:04.197Z,65779.84
2023-01-12T18:07:08.407Z,65714.34
2023-01-12T18:12:12.558Z,65625.22
2023-01-12T18:17:18.257Z,65636.50
2023-01-12T18:22:22.751Z,65654.66
2023-01-12T18:27:27.031Z,65674.41
2023-01-12T18:32:32.594Z,65644.53
2023-01-12T18:37:37.178Z,65713.41
2023-01-12T18:42:54.775Z,65748.63
2023-01-12T18:48:17.505Z,65753.97
2023-01-12T18:53:26.499Z,65727.91
2023-01-12T18:58:32.452Z,65663.09
2023-01-12T19:03:38.260Z,65649.84
2023-01-12T19:09:00.158Z,65626.38
2023-01-12T19:14:21.661Z,65678.59
2023-01-12T19:19:27.526Z,65669.06
2023-01-12T19:24:48.961Z,65649.22
2023-01-12T19:29:53.166Z,65628.31
2023-01-12T19:35:09.777Z,65653.31
2023-01-12T19:40:20.626Z,65650.91
2023-01-12T19:45:24.819Z,65689.69
2023-01-12T19:50:30.414Z,65645.69
2023-01-12T19:55:36.398Z,65628.94
2023-01-12T20:00:45.159Z,65606.97
2023-01-12T20:05:52.910Z,65586.72
2023-01-12T20:10:59.042Z,65554.28
2023-01-12T20:16:08.262Z,65583.50
2023-01-12T20:21:14.006Z,65567.06
2023-01-12T20:26:18.060Z,65584.66
2023-01-12T20:31:22.216Z,65596.94
2023-01-12T20:36:28.159Z,65557.91
2023-01-12T20:41:33.459Z,65586.81
2023-01-12T20:46:38.036Z,65563.78
2023-01-12T20:51:43.646Z,65573.47
2023-01-12T20:56:47.811Z,65633.22
2023-01-12T21:01:52.176Z,65682.44
2023-01-12T21:06:58.010Z,65641.22
2023-01-12T21:12:02.151Z,65677.97
2023-01-12T21:17:07.196Z,65726.75
2023-01-12T21:22:13.282Z,65720.31
2023-01-12T21:27:17.617Z,65722.81
2023-01-12T21:32:23.336Z,65661.63
2023-01-12T21:37:28.920Z,65703.03
2023-01-12T21:42:58.737Z,65715.53
2023-01-12T21:48:02.929Z,65682.84
2023-01-12T21:53:09.347Z,65640.78
2023-01-12T21:58:13.537Z,65676.91
2023-01-12T22:03:18.257Z,65650.19
2023-01-12T22:08:23.787Z,65665.34
2023-01-12T22:13:27.893Z,65633.84
2023-01-12T22:18:32.123Z,65627.78
2023-01-12T22:23:38.663Z,65594.72
2023-01-12T22:28:44.548Z,65554.91
2023-01-12T22:33:48.638Z,65520.78
2023-01-12T22:38:54.281Z,65540.84
2023-01-12T22:43:58.369Z,65592.56
2023-01-12T22:49:02.676Z,65577.81
2023-01-12T22:54:08.688Z,65563.22
2023-01-12T22:59:14.073Z,65615.63
2023-01-12T23:04:18.210Z,65634.91
2023-01-12T23:09:25.355Z,65635.25
2023-01-12T23:14:29.577Z,65640.06
2023-01-12T23:19:34.206Z,65641.88
2023-01-12T23:24:39.739Z,65593.75
2023-01-12T23:29:44.015Z,65582.44
2023-01-12T23:34:48.125Z,65568.78
2023-01-12T23:39:53.615Z,65575.59
2023-01-12T23:44:57.936Z,65587.97
2023-01-12T23:50:02.106Z,65685.53
2023-01-12T23:55:09.057Z,65616.78
